Time;durP1;ratioP1;P1;durP2;ratioP2;P2;SDS_P1;SDS_P2;PMS_P1;PMS_P2;Temp;Humidity;BMP_temperature;BMP_pressure;BME280_temperature;BME280_humidity;BME280_pressure;Samples;Min_cycle;Max_cycle;Signal;HPM_P1;HPM_P2
2023/01/07 00:00:51;;;;;;;;;8.25;8.25;;;;;14.03;67.72;-19585.63;5058535;28;45473;-92
2023/01/07 00:03:17;;;;;;;;;7.25;7.25;;;;;13.99;67.52;-19584.69;5058166;28;45323;-93
2023/01/07 00:05:43;;;;;;;;;18.75;18.75;;;;;14.03;67.46;-19585.63;5091952;27;45544;-92
2023/01/07 00:08:10;;;;;;;;;17.50;17.50;;;;;14.54;67.75;-19599.19;5055003;28;47074;-94
2023/01/07 00:10:35;;;;;;;;;22.25;20.25;;;;;13.20;67.69;-19563.84;5052292;28;45512;-93
2023/01/07 00:13:01;;;;;;;;;9.25;9.25;;;;;13.13;67.70;-19562.09;5075332;27;45395;-91
2023/01/07 00:15:27;;;;;;;;;29.00;28.50;;;;;12.78;67.12;-19552.81;5072435;28;46580;-93
2023/01/07 00:17:52;;;;;;;;;42.75;38.75;;;;;14.43;66.96;-19596.09;5051801;28;45892;-93
2023/01/07 00:20:18;;;;;;;;;42.50;38.75;;;;;12.60;67.41;-19548.25;5082300;27;45330;-93
2023/01/07 00:22:43;;;;;;;;;44.00;39.25;;;;;13.09;66.96;-19561.16;5057544;28;45506;-93
2023/01/07 00:25:09;;;;;;;;;47.50;41.50;;;;;12.75;67.16;-19552.00;5078588;27;45526;-93
2023/01/07 00:27:34;;;;;;;;;21.25;17.75;;;;;12.86;67.14;-19555.09;5048986;28;47254;-92
2023/01/07 00:30:05;;;;;;;;;47.00;41.75;;;;;14.43;67.22;-19596.09;5062800;27;47254;-91
2023/01/07 00:35:22;;;;;;;;;44.50;35.75;;;;;13.88;66.32;-19581.88;5051759;28;45370;-91
2023/01/07 00:37:49;;;;;;;;;24.25;17.50;;;;;12.95;66.46;-19557.38;5053147;28;47623;-91
2023/01/07 00:40:15;;;;;;;;;39.25;31.50;;;;;14.38;66.80;-19594.75;5062409;28;45484;-91
2023/01/07 00:42:53;;;;;;;;;22.75;22.75;;;;;14.29;66.87;-19592.59;5064894;28;45386;-91
2023/01/07 00:48:17;;;;;;;;;39.25;34.25;;;;;14.28;66.53;-19592.34;5064044;22;45458;-90
2023/01/07 00:50:44;;;;;;;;;41.00;32.00;;;;;13.61;66.75;-19574.75;5065726;28;45509;-89
2023/01/07 00:53:11;;;;;;;;;34.00;25.50;;;;;14.42;66.08;-19595.97;5067754;28;45374;-90
2023/01/07 00:55:37;;;;;;;;;32.50;24.50;;;;;14.18;66.54;-19589.53;5062204;28;45578;-91
2023/01/07 00:58:03;;;;;;;;;38.75;29.00;;;;;14.47;66.23;-19597.31;5041996;28;46442;-91
2023/01/07 01:00:28;;;;;;;;;19.50;11.25;;;;;13.88;66.41;-19581.88;5065924;28;45383;-90
2023/01/07 01:02:53;;;;;;;;;19.75;9.00;;;;;13.41;66.19;-19569.50;5057644;28;45474;-91
2023/01/07 01:05:22;;;;;;;;;24.50;11.75;;;;;13.35;65.67;-19567.88;5059839;28;45520;-90
2023/01/07 01:07:48;;;;;;;;;18.00;4.67;;;;;13.60;65.41;-19574.47;5070302;28;47698;-90
2023/01/07 01:10:16;;;;;;;;;25.25;12.25;;;;;14.08;66.10;-19586.97;5039424;28;45679;-90
2023/01/07 01:12:42;;;;;;;;;35.50;23.50;;;;;13.51;65.83;-19572.19;5053874;28;45473;-90
2023/01/07 01:15:11;;;;;;;;;30.75;16.25;;;;;14.46;66.10;-19597.03;5057384;28;45424;-90
2023/01/07 01:17:37;;;;;;;;;21.25;7.25;;;;;14.50;66.05;-19598.13;5063375;28;46339;-90
2023/01/07 01:20:04;;;;;;;;;24.25;8.75;;;;;14.31;65.76;-19593.16;5063451;28;45432;-89
2023/01/07 01:22:29;;;;;;;;;20.33;5.33;;;;;14.47;65.76;-19597.16;5056767;28;45407;-92
2023/01/07 01:24:54;;;;;;;;;4.33;3.00;;;;;13.56;65.36;-19573.25;5109985;22;45402;-92
2023/01/07 01:27:20;;;;;;;;;22.25;7.75;;;;;12.79;65.80;-19553.22;5055315;28;48249;-93
2023/01/07 01:29:45;;;;;;;;;4.00;4.00;;;;;13.78;65.79;-19579.16;5060919;28;45363;-93
2023/01/07 01:32:11;;;;;;;;;5.33;5.33;;;;;13.55;65.88;-19573.13;5073925;28;45292;-94
2023/01/07 01:34:36;;;;;;;;;3.00;3.00;;;;;13.54;65.36;-19572.72;5074627;28;45200;-93
2023/01/07 01:37:15;;;;;;;;;5.00;3.00;;;;;13.52;65.38;-19572.31;5063900;28;47212;-95
2023/01/07 01:39:41;;;;;;;;;1.67;1.67;;;;;13.02;64.79;-19559.13;5076131;27;45917;-95
2023/01/07 01:42:19;;;;;;;;;2.33;2.33;;;;;13.87;64.81;-19581.47;5070149;28;45353;-94
2023/01/07 01:45:07;;;;;;;;;1.00;1.00;;;;;14.20;64.86;-19590.19;5057895;28;45657;-94
2023/01/07 01:47:42;;;;;;;;;1.67;1.67;;;;;12.87;64.43;-19555.22;5057205;28;47378;-94
2023/01/07 01:51:38;;;;;;;;;;;;;;;;;;;;;
2023/01/07 01:57:22;;;;;;;;;2.33;2.33;;;;;12.77;65.10;-19552.53;5016119;28;45538;-95
2023/01/07 02:03:25;;;;;;;;;2.00;2.00;;;;;12.62;64.95;-19548.63;5018356;28;45415;-95
2023/01/07 02:05:53;;;;;;;;;2.00;2.00;;;;;13.56;64.92;-19573.41;5000639;28;45664;-96
2023/01/07 02:08:22;;;;;;;;;3.00;2.00;;;;;12.79;64.60;-19553.22;5022967;28;46963;-95
2023/01/07 02:11:10;;;;;;;;;2.00;1.33;;;;;12.55;65.10;-19546.88;4987375;28;45600;-95
2023/01/07 02:13:43;;;;;;;;;3.00;1.33;;;;;14.44;64.85;-19596.38;5002022;28;45391;-96
2023/01/07 02:20:09;;;;;;;;;4.67;2.00;;;;;14.45;64.94;-19596.78;4952061;28;45598;-96
2023/01/07 02:23:16;;;;;;;;;3.00;3.00;;;;;14.42;64.69;-19595.84;5008503;28;45447;-95
2023/01/07 02:26:19;;;;;;;;;3.00;2.00;;;;;14.40;64.53;-19595.44;5001516;28;45385;-96
2023/01/07 02:29:23;;;;;;;;;1.33;1.33;;;;;13.03;64.55;-19559.53;5004525;28;45558;-96
2023/01/07 02:32:07;;;;;;;;;2.00;2.00;;;;;14.39;64.51;-19595.03;4973002;28;45840;-93
2023/01/07 02:35:02;;;;;;;;;2.33;2.33;;;;;13.28;64.10;-19566.00;5007293;28;45573;-92
2023/01/07 02:37:39;;;;;;;;;3.33;3.33;;;;;14.39;64.33;-19595.16;4997015;28;46287;-92
2023/01/07 02:40:32;;;;;;;;;4.67;4.67;;;;;14.38;64.40;-19594.75;4998217;28;45392;-94
2023/01/07 02:43:09;;;;;;;;;6.67;6.33;;;;;14.39;64.21;-19595.16;5017793;28;45773;-93
2023/01/07 02:45:42;;;;;;;;;4.33;3.33;;;;;13.86;64.57;-19581.31;5011088;28;47211;-92
2023/01/07 02:48:14;;;;;;;;;4.00;4.00;;;;;13.83;64.02;-19580.50;5005250;28;46202;-93
2023/01/07 02:50:47;;;;;;;;;2.00;2.00;;;;;13.89;64.37;-19582.00;4993648;28;45494;-94
2023/01/07 02:53:17;;;;;;;;;3.33;3.33;;;;;13.77;63.92;-19578.91;4992807;28;45668;-93
2023/01/07 02:56:17;;;;;;;;;1.33;1.33;;;;;14.40;63.94;-19595.44;5003473;28;45735;-93
2023/01/07 02:59:04;;;;;;;;;2.33;2.33;;;;;14.41;64.19;-19595.69;5011050;28;45986;-94
2023/01/07 03:01:38;;;;;;;;;2.67;2.67;;;;;14.05;64.26;-19586.28;4990835;28;45442;-93
2023/01/07 03:04:31;;;;;;;;;3.00;2.00;;;;;14.43;64.04;-19596.22;5065106;22;45536;-90
2023/01/07 03:07:27;;;;;;;;;3.00;2.00;;;;;14.44;63.87;-19596.50;5058681;28;47478;-90
2023/01/07 03:10:04;;;;;;;;;1.33;1.33;;;;;14.42;63.52;-19595.84;5051176;28;45475;-89
2023/01/07 03:12:41;;;;;;;;;1.00;1.00;;;;;14.40;63.80;-19595.44;5058187;28;45536;-89
2023/01/07 03:15:10;;;;;;;;;3.33;3.33;;;;;14.43;63.63;-19596.09;5059243;28;45453;-90
2023/01/07 03:17:41;;;;;;;;;1.67;1.67;;;;;14.33;63.52;-19593.69;5058700;28;46453;-90
2023/01/07 03:20:08;;;;;;;;;2.00;2.00;;;;;14.46;63.39;-19597.03;5057532;28;45680;-89
2023/01/07 03:22:37;;;;;;;;;3.00;3.00;;;;;14.30;63.08;-19592.88;5049497;28;45414;-90
2023/01/07 03:25:05;;;;;;;;;6.00;6.00;;;;;14.47;63.19;-19597.16;5059341;28;45470;-89
2023/01/07 03:27:34;;;;;;;;;7.00;5.00;;;;;14.48;62.88;-19597.44;5057837;28;46542;-89
2023/01/07 03:30:04;;;;;;;;;3.33;3.33;;;;;14.27;63.01;-19592.06;5056555;28;45485;-90
2023/01/07 03:32:37;;;;;;;;;2.67;2.67;;;;;14.13;62.94;-19588.44;5057512;28;45525;-90
2023/01/07 03:35:04;;;;;;;;;4.00;4.00;;;;;14.06;62.56;-19586.44;5058635;28;45234;-87
2023/01/07 03:37:32;;;;;;;;;3.33;3.33;;;;;14.49;62.78;-19597.72;5056037;28;47109;-89
2023/01/07 03:39:58;;;;;;;;;8.00;8.00;;;;;14.22;62.45;-19590.72;5055362;28;45847;-89
2023/01/07 03:42:46;;;;;;;;;13.00;13.00;;;;;14.15;61.90;-19588.84;5058299;28;45573;-90
2023/01/07 03:45:20;;;;;;;;;10.50;10.50;;;;;14.31;62.06;-19593.00;5054029;28;45668;-90
2023/01/07 03:47:48;;;;;;;;;15.50;15.50;;;;;14.48;62.08;-19597.56;5057503;28;46405;-91
2023/01/07 03:50:15;;;;;;;;;10.50;10.50;;;;;14.20;62.12;-19590.06;5065351;28;45754;-90
2023/01/07 03:52:40;;;;;;;;;18.50;18.50;;;;;14.50;61.90;-19598.13;5057257;28;45541;-90
2023/01/07 03:55:06;;;;;;;;;8.67;8.67;;;;;14.47;61.46;-19597.16;5058163;28;45304;-90
2023/01/07 03:57:32;;;;;;;;;3.00;3.00;;;;;14.50;60.94;-19598.13;5053308;28;45917;-89
2023/01/07 03:59:57;;;;;;;;;3.00;3.00;;;;;14.32;61.16;-19593.28;5047348;28;45411;-90
2023/01/07 04:02:23;;;;;;;;;3.67;3.67;;;;;14.34;61.38;-19593.81;5055984;28;45674;-89
2023/01/07 04:04:48;;;;;;;;;4.33;4.33;;;;;14.52;61.38;-19598.53;5058670;28;45548;-89
2023/01/07 04:07:14;;;;;;;;;4.67;4.67;;;;;14.42;61.35;-19595.84;5056941;28;45714;-90
2023/01/07 04:09:40;;;;;;;;;4.33;4.33;;;;;14.23;60.90;-19591.00;5053715;28;45701;-88
2023/01/07 04:12:06;;;;;;;;;5.33;5.33;;;;;14.29;60.94;-19592.59;5052992;28;45552;-90
2023/01/07 04:14:31;;;;;;;;;6.33;6.33;;;;;14.24;60.81;-19591.25;5056277;28;45750;-89
2023/01/07 04:16:56;;;;;;;;;7.00;7.00;;;;;14.40;60.80;-19595.28;5056776;28;46311;-89
2023/01/07 04:19:22;;;;;;;;;5.33;5.33;;;;;14.36;61.06;-19594.50;5057246;28;45484;-90
2023/01/07 04:21:47;;;;;;;;;6.67;5.33;;;;;14.43;60.57;-19594.28;5057106;28;45449;-89
2023/01/07 04:24:13;;;;;;;;;6.33;6.33;;;;;14.45;60.82;-19596.78;5045738;28;46129;-90
2023/01/07 04:26:38;;;;;;;;;2.67;2.67;;;;;14.38;60.46;-19592.94;5056129;28;46035;-89
2023/01/07 04:29:04;;;;;;;;;0.67;0.67;;;;;14.41;60.16;-19593.63;5055848;28;45483;-90
2023/01/07 04:31:29;;;;;;;;;1.33;1.33;;;;;14.38;60.01;-19592.94;5054400;28;45535;-90
2023/01/07 04:33:55;;;;;;;;;3.00;1.67;;;;;14.18;60.20;-19587.69;5056349;28;45858;-89
2023/01/07 04:36:20;;;;;;;;;2.67;1.67;;;;;14.33;60.60;-19591.59;5057620;28;46129;-91
2023/01/07 04:38:46;;;;;;;;;1.00;1.00;;;;;14.23;60.30;-19588.91;5054031;28;46239;-89
2023/01/07 04:41:11;;;;;;;;;3.00;2.00;;;;;14.22;60.42;-19588.78;5050296;28;45382;-88
2023/01/07 04:43:36;;;;;;;;;1.33;1.00;;;;;14.01;60.56;-19583.13;5057477;28;45616;-91
2023/01/07 04:46:02;;;;;;;;;0.67;0.67;;;;;14.25;60.25;-19589.59;5057534;28;45652;-90
2023/01/07 04:48:28;;;;;;;;;2.00;2.00;;;;;14.10;60.32;-19585.56;5056771;28;45453;-90
2023/01/07 04:50:54;;;;;;;;;1.33;1.33;;;;;14.19;60.80;-19587.84;5055248;28;45538;-91
2023/01/07 04:53:19;;;;;;;;;4.00;4.00;;;;;13.97;60.88;-19582.06;5057993;28;45357;-91
2023/01/07 04:55:45;;;;;;;;;4.33;4.33;;;;;14.13;61.03;-19586.50;5057900;28;45440;-90
2023/01/07 04:58:10;;;;;;;;;12.00;12.00;;;;;14.06;61.23;-19584.63;5056290;28;45630;-90
2023/01/07 05:00:36;;;;;;;;;8.00;7.67;;;;;13.91;61.58;-19580.59;5056771;28;45379;-90
2023/01/07 05:03:01;;;;;;;;;11.33;11.33;;;;;13.96;61.62;-19581.78;5053132;28;45551;-89
2023/01/07 05:05:27;;;;;;;;;13.75;13.75;;;;;13.89;62.50;-19580.19;5056290;28;46264;-90
2023/01/07 05:07:52;;;;;;;;;9.75;9.75;;;;;13.85;62.50;-19579.09;5056843;28;45433;-90
2023/01/07 05:10:17;;;;;;;;;17.75;17.75;;;;;13.62;62.80;-19572.94;5054946;28;45710;-90
2023/01/07 05:12:43;;;;;;;;;13.75;12.75;;;;;13.66;62.98;-19574.13;5057066;28;45250;-90
2023/01/07 05:15:08;;;;;;;;;12.25;10.50;;;;;13.72;63.09;-19575.75;5056988;28;45294;-89
2023/01/07 05:17:34;;;;;;;;;14.50;14.50;;;;;13.62;63.37;-19573.06;5057376;28;45346;-89
2023/01/07 05:19:59;;;;;;;;;16.25;14.25;;;;;13.66;63.46;-19574.13;5056832;28;45352;-90
2023/01/07 05:22:25;;;;;;;;;4.33;4.33;;;;;13.57;63.55;-19571.72;5055774;28;45430;-90
2023/01/07 05:24:50;;;;;;;;;10.50;10.50;;;;;13.61;63.94;-19572.78;5056728;28;47164;-90
2023/01/07 05:27:15;;;;;;;;;8.00;8.00;;;;;13.59;64.23;-19574.19;5056511;28;45322;-90
2023/01/07 05:29:41;;;;;;;;;10.33;9.00;;;;;13.41;64.31;-19569.50;5058435;28;45516;-90
2023/01/07 05:32:06;;;;;;;;;13.25;10.50;;;;;13.53;64.47;-19572.59;5055851;28;45789;-90
2023/01/07 05:34:32;;;;;;;;;12.75;12.75;;;;;13.42;64.62;-19569.75;5056027;28;47171;-89
2023/01/07 05:36:57;;;;;;;;;5.33;4.00;;;;;13.47;64.88;-19571.09;5055324;28;45705;-90
2023/01/07 05:39:22;;;;;;;;;6.33;6.33;;;;;13.43;64.96;-19569.91;5046190;28;45412;-90
2023/01/07 05:41:48;;;;;;;;;5.33;5.33;;;;;13.42;64.93;-19569.63;5049062;28;45434;-90
2023/01/07 05:44:13;;;;;;;;;9.33;8.33;;;;;13.07;65.52;-19560.47;5056847;28;46484;-90
2023/01/07 05:46:39;;;;;;;;;9.67;9.67;;;;;12.90;65.68;-19556.03;5051345;28;45497;-89
2023/01/07 05:49:04;;;;;;;;;11.33;11.33;;;;;12.90;66.16;-19556.03;5053615;28;45573;-89
2023/01/07 05:51:29;;;;;;;;;12.67;12.67;;;;;13.06;65.93;-19560.34;5056258;28;45547;-90
2023/01/07 05:53:55;;;;;;;;;14.00;12.67;;;;;13.19;66.22;-19563.72;5055246;28;46190;-90
2023/01/07 05:56:20;;;;;;;;;10.00;10.00;;;;;13.16;66.57;-19562.75;5055695;28;45438;-89
2023/01/07 05:58:46;;;;;;;;;10.00;9.00;;;;;13.06;66.79;-19560.22;5056092;28;45530;-90
2023/01/07 06:01:11;;;;;;;;;11.00;11.00;;;;;13.01;66.56;-19558.88;5051249;28;45446;-88
2023/01/07 06:03:37;;;;;;;;;8.33;8.33;;;;;12.99;66.74;-19558.47;5062461;28;47338;-90
2023/01/07 06:06:05;;;;;;;;;9.67;9.67;;;;;13.00;66.59;-19558.72;5056123;28;45625;-89
2023/01/07 06:08:35;;;;;;;;;17.00;17.00;;;;;12.93;66.81;-19556.72;5056267;28;45603;-89
2023/01/07 06:11:01;;;;;;;;;11.33;11.33;;;;;13.04;66.98;-19559.66;5055649;28;45263;-90
2023/01/07 06:13:27;;;;;;;;;12.67;12.67;;;;;13.03;66.91;-19559.53;5055177;28;46916;-90
2023/01/07 06:15:53;;;;;;;;;24.25;23.75;;;;;12.76;67.09;-19552.28;5053681;28;45695;-90
2023/01/07 06:18:18;;;;;;;;;25.25;25.25;;;;;12.87;67.21;-19555.38;5071388;27;45544;-90
2023/01/07 06:20:43;;;;;;;;;18.25;18.25;;;;;12.61;67.21;-19548.38;5049393;28;45334;-89
2023/01/07 06:23:09;;;;;;;;;27.50;26.75;;;;;12.92;67.10;-19556.44;5056561;28;47254;-91
2023/01/07 06:25:34;;;;;;;;;31.50;30.50;;;;;12.82;67.53;-19554.03;5055541;28;45808;-90
2023/01/07 06:27:59;;;;;;;;;43.75;38.00;;;;;12.91;67.57;-19556.31;5056446;28;45433;-90
2023/01/07 06:30:25;;;;;;;;;21.25;20.75;;;;;12.77;67.44;-19552.53;5056576;28;45350;-90
2023/01/07 06:32:50;;;;;;;;;26.75;26.75;;;;;12.60;67.71;-19548.25;5055568;28;46411;-90
2023/01/07 06:35:16;;;;;;;;;41.50;36.25;;;;;12.74;67.56;-19551.75;5054908;28;45459;-90
2023/01/07 06:37:41;;;;;;;;;44.25;38.50;;;;;12.76;67.65;-19552.28;5056660;28;45526;-91
2023/01/07 06:40:07;;;;;;;;;54.00;45.33;;;;;12.38;67.63;-19542.44;5057588;28;45446;-90
2023/01/07 06:42:33;;;;;;;;;42.25;37.00;;;;;12.58;67.89;-19547.56;5059465;28;46188;-91
2023/01/07 06:44:58;;;;;;;;;39.33;35.33;;;;;12.68;67.74;-19550.38;5061805;28;45337;-90
2023/01/07 06:47:24;;;;;;;;;43.00;37.67;;;;;12.25;67.91;-19539.09;5058997;28;45466;-91
2023/01/07 06:49:50;;;;;;;;;42.67;37.33;;;;;12.64;67.77;-19549.31;5060125;28;45500;-91
2023/01/07 06:52:15;;;;;;;;;52.67;45.00;;;;;12.40;68.07;-19542.84;5058500;28;46055;-91
2023/01/07 06:54:41;;;;;;;;;44.33;38.67;;;;;12.44;68.19;-19543.94;5059356;28;45535;-91
2023/01/07 06:57:06;;;;;;;;;45.67;39.00;;;;;12.32;68.09;-19540.84;5055572;28;45380;-90
2023/01/07 06:59:31;;;;;;;;;50.00;43.00;;;;;12.46;67.98;-19544.59;5052616;28;45774;-90
2023/01/07 07:01:57;;;;;;;;;47.33;40.67;;;;;12.68;67.84;-19550.38;5073850;27;48398;-89
2023/01/07 07:04:22;;;;;;;;;55.00;46.33;;;;;12.59;67.94;-19547.84;5055874;28;45343;-90
2023/01/07 07:06:47;;;;;;;;;42.67;37.33;;;;;12.50;67.92;-19545.53;5052120;28;45596;-90
2023/01/07 07:09:13;;;;;;;;;55.33;41.33;;;;;12.52;67.75;-19545.94;5055202;28;45456;-91
2023/01/07 07:11:38;;;;;;;;;45.00;38.00;;;;;12.28;67.65;-19539.63;5057977;28;46487;-90
2023/01/07 07:14:04;;;;;;;;;36.00;32.75;;;;;12.74;67.60;-19551.75;5060171;28;46328;-90
2023/01/07 07:16:29;;;;;;;;;34.50;32.50;;;;;12.61;67.23;-19548.38;5062435;28;45441;-92
2023/01/07 07:18:55;;;;;;;;;30.25;29.75;;;;;12.45;66.94;-19544.34;5060334;28;45537;-94
2023/01/07 07:21:20;;;;;;;;;42.00;37.00;;;;;12.52;67.28;-19545.94;5058641;28;47213;-93
2023/01/07 07:23:46;;;;;;;;;27.50;27.00;;;;;12.51;67.12;-19545.69;5066173;28;45303;-90
2023/01/07 07:26:11;;;;;;;;;25.75;25.75;;;;;11.84;66.99;-19528.31;5055658;28;45741;-89
2023/01/07 07:28:36;;;;;;;;;26.75;25.25;;;;;12.76;66.73;-19552.41;5066806;28;45336;-90
2023/01/07 07:31:02;;;;;;;;;16.25;16.25;;;;;12.64;66.74;-19549.19;5058518;28;46467;-91
2023/01/07 07:33:28;;;;;;;;;11.50;11.50;;;;;12.78;66.51;-19552.81;5057295;28;45750;-91
2023/01/07 07:35:57;;;;;;;;;18.50;18.00;;;;;12.50;66.66;-19545.41;5060233;28;45429;-91
2023/01/07 07:38:22;;;;;;;;;28.50;25.50;;;;;12.79;66.77;-19553.22;5059196;28;45363;-90
2023/01/07 07:40:48;;;;;;;;;25.25;23.75;;;;;12.44;66.55;-19544.06;5048137;28;46063;-94
2023/01/07 07:43:14;;;;;;;;;16.50;16.50;;;;;12.58;66.79;-19547.69;5050689;27;45548;-92
2023/01/07 07:45:40;;;;;;;;;17.50;17.50;;;;;12.72;66.66;-19551.34;5054585;28;45688;-93
2023/01/07 07:48:07;;;;;;;;;12.00;12.00;;;;;12.45;66.47;-19544.34;5055617;28;45538;-91
2023/01/07 07:50:34;;;;;;;;;14.75;14.75;;;;;12.61;66.67;-19548.50;5054982;28;46571;-90
2023/01/07 07:52:59;;;;;;;;;19.75;19.75;;;;;12.57;66.75;-19547.44;5055369;28;45506;-93
2023/01/07 07:55:25;;;;;;;;;22.25;22.25;;;;;12.47;67.02;-19544.72;5059873;28;45859;-94
2023/01/07 07:57:53;;;;;;;;;29.50;28.75;;;;;12.54;66.95;-19546.63;5057436;28;45515;-93
2023/01/07 08:00:18;;;;;;;;;22.25;20.75;;;;;12.29;66.70;-19539.88;5060356;28;47246;-92
2023/01/07 08:02:43;;;;;;;;;20.25;18.75;;;;;12.20;66.95;-19537.75;5064989;28;45455;-94
2023/01/07 08:05:10;;;;;;;;;32.25;28.75;;;;;12.13;67.02;-19535.84;5055877;28;45557;-95
2023/01/07 08:07:35;;;;;;;;;24.00;22.75;;;;;12.46;67.16;-19544.59;5059395;28;45684;-94
2023/01/07 08:10:01;;;;;;;;;28.75;28.50;;;;;12.19;67.05;-19537.34;5058974;28;47032;-95
2023/01/07 08:12:26;;;;;;;;;29.00;28.50;;;;;12.47;67.05;-19544.72;5062135;28;45464;-95
2023/01/07 08:14:51;;;;;;;;;25.50;22.75;;;;;12.30;66.70;-19540.16;5058217;28;45400;-92
2023/01/07 08:17:17;;;;;;;;;25.25;24.75;;;;;12.48;67.04;-19544.88;5059541;28;45623;-95
2023/01/07 08:19:42;;;;;;;;;28.50;27.50;;;;;12.31;66.91;-19540.44;5059693;28;48410;-93
2023/01/07 08:22:07;;;;;;;;;23.25;23.25;;;;;12.54;66.95;-19546.63;5063325;28;45422;-95
2023/01/07 08:24:33;;;;;;;;;22.25;21.25;;;;;12.51;66.45;-19545.69;5062746;28;45462;-95
2023/01/07 08:26:58;;;;;;;;;25.00;24.75;;;;;12.51;66.82;-19545.69;5066765;28;45474;-94
2023/01/07 08:29:23;;;;;;;;;28.25;28.25;;;;;12.38;67.00;-19542.31;5073713;27;48380;-94
2023/01/07 08:31:49;;;;;;;;;38.00;34.25;;;;;12.45;67.14;-19544.34;5058004;28;45405;-94
2023/01/07 08:34:14;;;;;;;;;29.25;28.00;;;;;12.50;67.03;-19545.53;5057191;28;45623;-95
2023/01/07 08:36:40;;;;;;;;;19.00;19.00;;;;;12.42;66.73;-19543.38;5051801;28;45452;-92
2023/01/07 08:39:05;;;;;;;;;21.25;21.25;;;;;12.06;66.52;-19533.81;5053604;28;45365;-94
2023/01/07 08:41:31;;;;;;;;;23.00;23.00;;;;;12.40;66.65;-19542.97;5048886;28;45509;-91
2023/01/07 08:43:56;;;;;;;;;16.25;16.25;;;;;12.04;67.16;-19533.44;5057701;28;45474;-91
2023/01/07 08:46:22;;;;;;;;;22.75;21.25;;;;;12.32;66.70;-19540.84;5060835;28;45470;-92
2023/01/07 08:48:47;;;;;;;;;25.50;23.00;;;;;12.29;67.10;-19540.03;5070026;27;45410;-91
2023/01/07 08:51:12;;;;;;;;;21.25;20.25;;;;;12.32;66.86;-19540.69;5055408;28;45279;-90
2023/01/07 08:53:38;;;;;;;;;18.25;18.25;;;;;12.38;67.10;-19542.44;5060355;28;45421;-91
2023/01/07 08:56:06;;;;;;;;;23.50;22.00;;;;;12.01;66.85;-19532.63;5056508;28;45346;-92
2023/01/07 08:58:31;;;;;;;;;27.75;27.25;;;;;12.37;67.09;-19542.03;5054800;28;47283;-90
2023/01/07 09:01:02;;;;;;;;;25.75;25.75;;;;;12.40;67.30;-19542.84;5056560;28;45274;-93
2023/01/07 09:03:27;;;;;;;;;30.75;29.75;;;;;12.50;67.26;-19545.53;5056921;28;45476;-94
2023/01/07 09:05:53;;;;;;;;;41.67;37.00;;;;;12.07;67.46;-19534.09;5060589;28;45466;-93
2023/01/07 09:08:18;;;;;;;;;45.67;38.67;;;;;12.46;67.43;-19544.59;5066976;28;46995;-94
2023/01/07 09:10:43;;;;;;;;;20.75;18.75;;;;;12.49;67.22;-19545.13;5057921;28;46968;-94
2023/01/07 09:13:09;;;;;;;;;23.25;22.25;;;;;12.52;67.06;-19546.09;5057684;28;45342;-92
2023/01/07 09:15:34;;;;;;;;;27.00;27.00;;;;;12.54;67.07;-19546.63;5058363;28;45302;-93
2023/01/07 09:18:02;;;;;;;;;15.50;15.50;;;;;12.58;67.22;-19547.69;5057007;28;47125;-90
2023/01/07 09:20:28;;;;;;;;;24.50;24.00;;;;;12.61;66.93;-19548.38;5050029;28;45583;-89
2023/01/07 09:22:53;;;;;;;;;16.75;15.25;;;;;12.62;66.88;-19548.78;5066929;27;45550;-89
2023/01/07 09:25:18;;;;;;;;;20.75;19.50;;;;;12.67;67.03;-19550.13;5057634;28;46983;-88
2023/01/07 09:27:44;;;;;;;;;19.25;18.25;;;;;12.38;66.65;-19542.44;5053654;28;45627;-89
2023/01/07 09:30:10;;;;;;;;;8.67;8.67;;;;;12.70;66.54;-19550.66;5054387;28;45689;-88
2023/01/07 09:32:36;;;;;;;;;7.00;7.00;;;;;11.65;66.58;-19523.06;5055914;28;45989;-91
2023/01/07 09:35:01;;;;;;;;;6.00;6.00;;;;;12.37;66.30;-19542.19;5050609;28;45455;-88
2023/01/07 09:37:26;;;;;;;;;6.67;6.67;;;;;12.81;66.35;-19553.75;5054585;28;46466;-89
2023/01/07 09:39:52;;;;;;;;;7.00;7.00;;;;;12.66;66.47;-19549.84;5047946;28;45350;-90
2023/01/07 09:42:37;;;;;;;;;7.67;7.00;;;;;12.95;66.39;-19557.25;5052884;28;46917;-89
2023/01/07 09:45:23;;;;;;;;;8.00;7.67;;;;;12.96;65.98;-19557.66;5052758;28;45544;-89
2023/01/07 09:47:54;;;;;;;;;12.00;12.00;;;;;12.75;66.26;-19552.00;5069892;27;47591;-92
2023/01/07 09:50:28;;;;;;;;;12.33;12.33;;;;;13.12;65.51;-19561.69;5051574;28;46965;-90
2023/01/07 09:52:59;;;;;;;;;14.33;14.33;;;;;12.80;65.44;-19553.47;5054408;28;45743;-90
2023/01/07 09:55:31;;;;;;;;;10.33;9.00;;;;;13.14;65.44;-19562.38;5058476;28;45332;-90
2023/01/07 09:57:56;;;;;;;;;27.67;27.67;;;;;13.13;65.83;-19562.09;5050339;28;46664;-88
2023/01/07 10:00:23;;;;;;;;;10.00;10.00;;;;;13.01;65.38;-19558.88;5052242;28;45593;-92
2023/01/07 10:03:10;;;;;;;;;11.33;11.33;;;;;12.94;65.16;-19557.13;5055378;28;45699;-90
2023/01/07 10:06:13;;;;;;;;;13.00;13.00;;;;;13.19;65.12;-19563.56;5053781;28;45605;-93
2023/01/07 10:08:49;;;;;;;;;16.00;14.00;;;;;13.20;65.13;-19563.84;5053537;28;47176;-94
2023/01/07 10:11:26;;;;;;;;;11.33;11.33;;;;;13.18;65.14;-19563.31;5057988;28;45387;-92
2023/01/07 10:14:13;;;;;;;;;15.00;15.00;;;;;13.18;64.95;-19563.44;5072375;28;45526;-92
2023/01/07 10:16:54;;;;;;;;;14.33;12.67;;;;;13.13;65.00;-19562.09;5052278;28;45851;-95
2023/01/07 10:19:35;;;;;;;;;20.75;18.75;;;;;12.36;65.02;-19541.78;5071198;27;48313;-94
2023/01/07 10:22:08;;;;;;;;;15.67;15.33;;;;;13.08;65.23;-19560.75;5055948;27;46469;-93
2023/01/07 10:24:43;;;;;;;;;18.50;16.50;;;;;12.87;65.35;-19555.22;5046233;28;45674;-90
2023/01/07 10:27:12;;;;;;;;;15.00;13.33;;;;;13.11;65.33;-19561.56;5052085;28;46953;-92
2023/01/07 10:29:53;;;;;;;;;14.33;12.67;;;;;13.00;64.82;-19558.72;5052919;27;45685;-92
2023/01/07 10:32:22;;;;;;;;;11.00;11.00;;;;;12.81;64.32;-19553.75;5051843;28;45502;-92
2023/01/07 10:34:50;;;;;;;;;14.00;13.00;;;;;13.21;64.78;-19564.13;5051829;28;45556;-92
2023/01/07 10:37:22;;;;;;;;;13.33;13.33;;;;;13.41;64.38;-19569.34;5055762;28;45442;-92
2023/01/07 10:39:59;;;;;;;;;16.67;16.67;;;;;13.42;64.22;-19569.63;5055435;28;46429;-93
2023/01/07 10:42:25;;;;;;;;;13.50;13.50;;;;;13.42;64.30;-19569.75;5077081;27;45417;-92
2023/01/07 10:45:14;;;;;;;;;16.00;16.00;;;;;13.18;63.80;-19563.44;5055124;28;46242;-94
2023/01/07 10:47:54;;;;;;;;;12.75;12.75;;;;;13.50;63.93;-19571.91;5070769;27;45580;-90
2023/01/07 10:50:36;;;;;;;;;12.33;11.67;;;;;13.55;63.93;-19573.00;5054897;28;45902;-91
2023/01/07 10:53:06;;;;;;;;;18.00;17.00;;;;;13.51;63.96;-19572.06;5055577;28;45606;-93
2023/01/07 10:55:47;;;;;;;;;14.75;14.00;;;;;12.98;63.34;-19558.19;5070209;27;45496;-96
2023/01/07 11:01:30;;;;;;;;;11.33;10.67;;;;;13.60;62.94;-19574.47;5066150;28;45569;-96
2023/01/07 11:03:58;;;;;;;;;10.67;10.33;;;;;13.47;63.19;-19570.97;5064134;22;45353;-93
2023/01/07 11:06:37;;;;;;;;;26.25;26.25;;;;;13.25;62.56;-19563.25;5041183;28;45332;-93
2023/01/07 11:09:09;;;;;;;;;33.75;31.75;;;;;13.63;62.84;-19573.19;5047470;28;45531;-92
2023/01/07 11:11:36;;;;;;;;;26.50;26.50;;;;;13.32;62.77;-19565.00;5035281;28;47347;-94
2023/01/07 11:14:14;;;;;;;;;29.50;27.50;;;;;13.12;62.88;-19559.88;5034624;28;46135;-93
2023/01/07 11:16:50;;;;;;;;;24.75;24.75;;;;;13.84;62.71;-19578.84;5031686;28;45369;-92
2023/01/07 11:19:15;;;;;;;;;22.25;22.00;;;;;13.56;62.55;-19571.44;5032810;28;45538;-93
2023/01/07 11:21:47;;;;;;;;;43.50;38.00;;;;;13.51;62.03;-19570.25;5031293;28;47433;-93
2023/01/07 11:24:34;;;;;;;;;22.50;22.50;;;;;14.05;61.87;-19584.34;5047860;28;45488;-93
2023/01/07 11:27:14;;;;;;;;;10.75;9.00;;;;;13.96;61.26;-19581.94;5034345;28;45421;-93
2023/01/07 11:30:04;;;;;;;;;14.25;13.00;;;;;13.85;61.35;-19578.97;5037675;28;45687;-93
2023/01/07 11:32:33;;;;;;;;;12.00;12.00;;;;;14.00;61.29;-19582.88;5035444;28;47379;-93
2023/01/07 11:35:02;;;;;;;;;21.00;21.00;;;;;14.00;61.60;-19582.88;5035566;28;45659;-92
2023/01/07 11:37:31;;;;;;;;;14.25;13.50;;;;;14.03;61.69;-19583.81;5034007;28;45540;-94
2023/01/07 11:39:58;;;;;;;;;16.50;16.00;;;;;14.04;61.56;-19583.94;5044729;28;45288;-96
2023/01/07 11:42:39;;;;;;;;;14.75;13.50;;;;;13.29;62.08;-19564.31;5030389;28;48321;-95
2023/01/07 11:45:10;;;;;;;;;16.00;16.00;;;;;13.61;61.58;-19572.66;5055441;28;46138;-96
2023/01/07 11:47:37;;;;;;;;;16.50;15.50;;;;;13.70;61.90;-19575.22;5041167;28;45497;-93